createdAt,value
2018-09-12T00:01:21.243Z,101613.72
2018-09-12T00:03:50.449Z,101616.30
2018-09-12T00:06:19.424Z,101618.40
2018-09-12T00:08:49.536Z,101622.88
2018-09-12T00:11:18.701Z,101618.67
2018-09-12T00:13:48.143Z,101612.69
2018-09-12T00:16:17.326Z,101625.05
2018-09-12T00:18:46.366Z,101620.14
2018-09-12T00:21:15.385Z,101610.86
2018-09-12T00:23:44.508Z,101613.51
2018-09-12T00:26:13.447Z,101613.95
2018-09-12T00:28:42.412Z,101615.12
2018-09-12T00:31:12.029Z,101621.53
2018-09-12T00:33:43.553Z,101618.67
2018-09-12T00:36:12.776Z,101621.69
2018-09-12T00:38:42.015Z,101623.06
2018-09-12T00:41:11.532Z,101621.53
2018-09-12T00:43:40.917Z,101621.16
2018-09-12T00:46:10.476Z,101615.33
2018-09-12T00:48:39.415Z,101620.22
2018-09-12T00:51:08.532Z,101608.52
2018-09-12T00:53:37.673Z,101623.91
2018-09-12T00:56:07.126Z,101619.53
2018-09-12T00:58:36.429Z,101617.06
2018-09-12T01:01:05.587Z,101610.20
2018-09-12T01:03:34.716Z,101602.87
2018-09-12T01:06:04.124Z,101602.11
2018-09-12T01:08:32.975Z,101607.24
2018-09-12T01:11:02.146Z,101595.47
2018-09-12T01:13:31.393Z,101595.53
2018-09-12T01:16:00.416Z,101597.80
2018-09-12T01:18:29.451Z,101601.77
2018-09-12T01:20:59.102Z,101597.67
2018-09-12T01:23:27.991Z,101598.13
2018-09-12T01:25:57.236Z,101607.31
2018-09-12T01:28:26.598Z,101609.34
2018-09-12T01:30:55.724Z,101613.75
2018-09-12T01:33:24.652Z,101607.61
2018-09-12T01:35:53.712Z,101603.52
2018-09-12T01:38:23.120Z,101604.02
2018-09-12T01:40:52.389Z,101596.60
2018-09-12T01:43:21.923Z,101602.14
2018-09-12T01:45:51.800Z,101596.55
2018-09-12T01:48:21.017Z,101599.09
2018-09-12T01:50:50.205Z,101601.55
2018-09-12T01:53:19.308Z,101607.75
2018-09-12T01:55:49.025Z,101607.05
2018-09-12T01:58:21.070Z,101600.80
2018-09-12T02:00:50.396Z,101603.93
2018-09-12T02:03:19.573Z,101603.66
2018-09-12T02:05:49.316Z,101601.77
2018-09-12T02:08:18.198Z,101591.59
2018-09-12T02:10:47.501Z,101595.24
2018-09-12T02:13:16.796Z,101596.46
2018-09-12T02:15:46.020Z,101587.23
2018-09-12T02:18:15.400Z,101595.76
2018-09-12T02:20:44.520Z,101592.33
2018-09-12T02:23:13.667Z,101599.36
2018-09-12T02:25:42.876Z,101595.91
2018-09-12T02:28:11.794Z,101595.31
2018-09-12T02:30:40.720Z,101597.05
2018-09-12T02:33:09.813Z,101595.00
2018-09-12T02:35:43.840Z,101597.09
2018-09-12T02:38:13.254Z,101595.03
2018-09-12T02:40:42.460Z,101592.94
2018-09-12T02:43:11.610Z,101593.48
2018-09-12T02:45:41.252Z,101596.76
2018-09-12T02:48:10.462Z,101595.61
2018-09-12T02:50:39.657Z,101603.17
2018-09-12T02:53:08.860Z,101602.61
2018-09-12T02:55:38.072Z,101600.23
2018-09-12T02:58:07.080Z,101599.33
2018-09-12T03:00:36.376Z,101600.96
2018-09-12T03:03:06.568Z,101602.98
2018-09-12T03:05:35.492Z,101602.37
2018-09-12T03:08:04.444Z,101608.80
2018-09-12T03:10:33.468Z,101601.95
2018-09-12T03:13:02.466Z,101613.52
2018-09-12T03:15:31.304Z,101607.94
2018-09-12T03:18:00.358Z,101607.27
2018-09-12T03:20:29.672Z,101605.89
2018-09-12T03:22:59.273Z,101614.03
2018-09-12T03:25:29.005Z,101615.66
2018-09-12T03:27:58.156Z,101618.64
2018-09-12T03:30:27.385Z,101615.23
2018-09-12T03:32:56.488Z,101612.09
2018-09-12T03:35:25.444Z,101617.77
2018-09-12T03:37:54.357Z,101613.36
2018-09-12T03:40:23.487Z,101616.08
2018-09-12T03:42:52.625Z,101619.14
2018-09-12T03:45:21.877Z,101632.09
2018-09-12T03:47:51.303Z,101628.30
2018-09-12T03:50:20.230Z,101622.40
2018-09-12T03:52:49.088Z,101635.96
2018-09-12T03:55:18.136Z,101633.31
2018-09-12T03:57:47.065Z,101639.80
2018-09-12T04:00:16.036Z,101643.53
2018-09-12T04:02:45.111Z,101643.67
2018-09-12T04:05:15.228Z,101648.62
2018-09-12T04:07:44.240Z,101646.39
2018-09-12T04:10:13.552Z,101642.84
2018-09-12T04:12:42.903Z,101646.09
2018-09-12T04:15:12.161Z,101652.10
2018-09-12T04:17:41.372Z,101647.17
2018-09-12T04:20:10.496Z,101650.67
2018-09-12T04:22:39.415Z,101644.77
2018-09-12T04:25:08.238Z,101646.17
2018-09-12T04:27:37.072Z,101660.31
2018-09-12T04:30:06.024Z,101659.17
2018-09-12T04:32:34.953Z,101660.31
2018-09-12T04:35:03.859Z,101655.88
2018-09-12T04:37:32.954Z,101661.97
2018-09-12T04:40:01.919Z,101662.27
2018-09-12T04:42:30.841Z,101662.19
2018-09-12T04:44:59.828Z,101657.88
2018-09-12T04:47:29.088Z,101667.64
2018-09-12T04:49:58.276Z,101674.63
2018-09-12T04:52:27.629Z,101669.70
2018-09-12T04:54:56.842Z,101669.81
2018-09-12T04:57:25.676Z,101670.98
2018-09-12T04:59:54.602Z,101674.55
2018-09-12T05:02:23.534Z,101679.33
2018-09-12T05:04:52.441Z,101677.70
2018-09-12T05:07:21.345Z,101673.73
2018-09-12T05:09:50.710Z,101678.41
2018-09-12T05:12:19.685Z,101668.87
2018-09-12T05:14:48.988Z,101667.94
2018-09-12T05:17:18.024Z,101674.16
2018-09-12T05:19:47.257Z,101668.07
2018-09-12T05:22:16.234Z,101658.92
2018-09-12T05:24:45.048Z,101666.67
2018-09-12T05:27:14.024Z,101665.64
2018-09-12T05:29:43.039Z,101659.02
2018-09-12T05:32:11.843Z,101658.38
2018-09-12T05:34:40.816Z,101658.48
2018-09-12T05:37:09.908Z,101656.75
2018-09-12T05:39:39.240Z,101657.37
2018-09-12T05:42:08.459Z,101657.61
2018-09-12T05:44:37.855Z,101665.02
2018-09-12T05:47:07.191Z,101657.58
2018-09-12T05:49:36.425Z,101655.73
2018-09-12T05:52:05.404Z,101657.75
2018-09-12T05:54:34.296Z,101657.16
2018-09-12T05:57:04.200Z,101666.94
2018-09-12T05:59:33.404Z,101652.72
2018-09-12T06:02:02.752Z,101653.92
2018-09-12T06:04:32.101Z,101657.37
2018-09-12T06:07:01.838Z,101664.56
2018-09-12T06:09:31.165Z,101665.02
2018-09-12T06:12:00.319Z,101670.83
2018-09-12T06:14:29.640Z,101668.55
2018-09-12T06:16:58.840Z,101673.39
2018-09-12T06:19:28.141Z,101675.66
2018-09-12T06:21:57.337Z,101664.11
2018-09-12T06:24:26.192Z,101670.23
2018-09-12T06:26:55.151Z,101681.06
2018-09-12T06:29:24.379Z,101682.24
2018-09-12T06:31:53.896Z,101685.27
2018-09-12T06:34:23.085Z,101686.09
2018-09-12T06:36:52.744Z,101687.46
2018-09-12T06:39:21.939Z,101690.98
2018-09-12T06:41:51.176Z,101689.38
2018-09-12T06:44:20.373Z,101695.08
2018-09-12T06:46:49.966Z,101689.16
2018-09-12T06:49:19.469Z,101689.08
2018-09-12T06:51:49.041Z,101696.02
2018-09-12T06:54:18.354Z,101689.93
2018-09-12T06:56:47.549Z,101685.67
2018-09-12T06:59:16.924Z,101683.70
2018-09-12T07:01:46.570Z,101681.02
2018-09-12T07:04:16.042Z,101683.97
2018-09-12T07:06:45.496Z,101686.55
2018-09-12T07:09:15.162Z,101683.66
2018-09-12T07:11:44.308Z,101686.12
2018-09-12T07:14:13.772Z,101680.67
2018-09-12T07:16:42.945Z,101677.09
2018-09-12T07:19:12.276Z,101675.02
2018-09-12T07:21:41.945Z,101672.62
2018-09-12T07:24:11.457Z,101686.66
2018-09-12T07:26:40.617Z,101685.11
2018-09-12T07:29:09.815Z,101684.43
2018-09-12T07:31:39.138Z,101685.11
2018-09-12T07:34:08.805Z,101700.77
2018-09-12T07:36:37.985Z,101683.54
2018-09-12T07:39:10.511Z,101693.39
2018-09-12T07:41:39.962Z,101686.12
2018-09-12T07:44:09.242Z,101688.28
2018-09-12T07:46:38.300Z,101691.49
2018-09-12T07:49:08.659Z,101690.20
2018-09-12T07:51:37.774Z,101700.78
2018-09-12T07:54:06.961Z,101695.79
2018-09-12T07:56:36.177Z,101694.66
2018-09-12T07:59:05.413Z,101694.41
2018-09-12T08:01:34.604Z,101697.92
2018-09-12T08:04:03.756Z,101678.62
2018-09-12T08:06:33.305Z,101685.69
2018-09-12T08:09:02.517Z,101684.84
2018-09-12T08:11:32.177Z,101671.94
2018-09-12T08:14:01.446Z,101678.42
2018-09-12T08:16:30.556Z,101670.49
2018-09-12T08:18:59.776Z,101684.80
2018-09-12T08:21:28.981Z,101667.70
2018-09-12T08:23:58.477Z,101690.70
2018-09-12T08:26:28.003Z,101682.36
2018-09-12T08:28:57.242Z,101694.23
2018-09-12T08:31:27.096Z,101683.88
2018-09-12T08:33:56.374Z,101687.87
2018-09-12T08:36:25.627Z,101688.92
2018-09-12T08:38:54.997Z,101688.36
2018-09-12T08:41:24.642Z,101689.83
2018-09-12T08:43:54.093Z,101698.05
2018-09-12T08:46:23.180Z,101695.92
2018-09-12T08:48:52.453Z,101684.39
2018-09-12T08:51:21.505Z,101694.64
2018-09-12T08:53:50.929Z,101700.08
2018-09-12T08:56:20.412Z,101691.45
2018-09-12T08:58:49.697Z,101688.09
2018-09-12T09:01:18.921Z,101690.03
2018-09-12T09:03:47.984Z,101686.02
2018-09-12T09:06:17.185Z,101690.00
2018-09-12T09:08:46.562Z,101679.46
2018-09-12T09:11:16.038Z,101686.66
2018-09-12T09:13:45.302Z,101684.66
2018-09-12T09:16:14.668Z,101687.59
2018-09-12T09:18:43.869Z,101678.43
2018-09-12T09:21:13.412Z,101674.43
2018-09-12T09:23:42.605Z,101665.55
2018-09-12T09:26:11.808Z,101654.39
2018-09-12T09:28:40.997Z,101669.98
2018-09-12T09:31:10.785Z,101670.20
2018-09-12T09:33:39.916Z,101668.16
2018-09-12T09:36:09.220Z,101652.38
2018-09-12T09:38:38.340Z,101649.48
2018-09-12T09:41:07.468Z,101652.08
2018-09-12T09:43:36.672Z,101646.84
2018-09-12T09:46:06.688Z,101651.00
2018-09-12T09:48:35.789Z,101638.16
2018-09-12T09:51:05.065Z,101648.41
2018-09-12T09:53:34.485Z,101653.91
2018-09-12T09:56:04.413Z,101649.95
2018-09-12T09:58:33.614Z,101644.79
2018-09-12T10:01:07.965Z,101650.92
2018-09-12T10:03:42.788Z,101644.36
2018-09-12T10:06:17.028Z,101650.45
2018-09-12T10:08:51.470Z,101646.45
2018-09-12T10:11:20.840Z,101649.64
2018-09-12T10:13:50.502Z,101652.42
2018-09-12T10:16:20.089Z,101645.38
2018-09-12T10:18:49.569Z,101644.13
2018-09-12T10:21:19.476Z,101634.77
2018-09-12T10:23:48.680Z,101636.12
2018-09-12T10:26:18.324Z,101655.30
2018-09-12T10:28:47.531Z,101638.27
2018-09-12T10:31:16.648Z,101636.79
2018-09-12T10:33:45.941Z,101626.73
2018-09-12T10:36:14.950Z,101628.83
2018-09-12T10:38:44.002Z,101639.06
2018-09-12T10:41:13.377Z,101634.43
2018-09-12T10:43:42.316Z,101635.84
2018-09-12T10:46:11.776Z,101634.86
2018-09-12T10:48:41.147Z,101636.68
2018-09-12T10:51:10.440Z,101625.12
2018-09-12T10:53:39.797Z,101627.59
2018-09-12T10:56:09.231Z,101624.56
2018-09-12T10:58:38.753Z,101630.66
2018-09-12T11:01:08.740Z,101629.69
2018-09-12T11:03:38.356Z,101623.56
2018-09-12T11:06:07.648Z,101638.20
2018-09-12T11:08:37.057Z,101619.83
2018-09-12T11:11:06.294Z,101614.34
2018-09-12T11:13:35.607Z,101604.73
2018-09-12T11:16:04.801Z,101597.23
2018-09-12T11:18:34.273Z,101605.63
2018-09-12T11:21:03.596Z,101609.37
2018-09-12T11:23:33.005Z,101610.41
2018-09-12T11:26:02.200Z,101609.89
2018-09-12T11:28:31.326Z,101600.31
2018-09-12T11:31:00.520Z,101607.16
2018-09-12T11:33:30.965Z,101627.58
2018-09-12T11:36:00.413Z,101617.46
2018-09-12T11:38:29.597Z,101622.73
2018-09-12T11:40:58.767Z,101619.61
2018-09-12T11:43:28.076Z,101627.41
2018-09-12T11:45:57.680Z,101633.89
2018-09-12T11:48:26.914Z,101624.31
2018-09-12T11:50:56.233Z,101632.95
2018-09-12T11:53:25.595Z,101622.05
2018-09-12T11:55:54.684Z,101621.88
2018-09-12T11:58:23.948Z,101621.77
2018-09-12T12:00:53.269Z,101631.23
2018-09-12T12:03:22.485Z,101626.79
2018-09-12T12:05:51.632Z,101636.50
2018-09-12T12:08:20.797Z,101634.14
2018-09-12T12:10:50.120Z,101635.78
2018-09-12T12:13:19.291Z,101640.31
2018-09-12T12:15:48.484Z,101638.80
2018-09-12T12:18:18.016Z,101632.59
2018-09-12T12:20:47.237Z,101630.00
2018-09-12T12:23:16.469Z,101635.09
2018-09-12T12:25:45.602Z,101636.70
2018-09-12T12:28:14.805Z,101629.76
2018-09-12T12:30:43.952Z,101634.86
2018-09-12T12:33:13.396Z,101635.89
2018-09-12T12:35:42.547Z,101633.61
2018-09-12T12:38:11.766Z,101637.28
2018-09-12T12:40:40.977Z,101637.09
2018-09-12T12:43:10.216Z,101635.36
2018-09-12T12:45:39.432Z,101623.34
2018-09-12T12:48:08.633Z,101619.78
2018-09-12T12:50:37.734Z,101614.61
2018-09-12T12:53:07.475Z,101613.41
2018-09-12T12:55:36.941Z,101610.47
2018-09-12T12:58:06.114Z,101611.98
2018-09-12T13:00:35.357Z,101609.61
2018-09-12T13:03:04.760Z,101609.09
2018-09-12T13:05:34.201Z,101615.28
2018-09-12T13:08:03.349Z,101615.47
2018-09-12T13:10:32.433Z,101615.80
2018-09-12T13:13:01.743Z,101620.55
2018-09-12T13:15:30.813Z,101609.17
2018-09-12T13:18:00.389Z,101609.22
2018-09-12T13:20:29.546Z,101611.00
2018-09-12T13:22:58.917Z,101611.34
2018-09-12T13:25:28.241Z,101620.48
2018-09-12T13:27:57.678Z,101607.63
2018-09-12T13:30:26.861Z,101611.45
2018-09-12T13:32:56.065Z,101604.22
2018-09-12T13:35:25.539Z,101615.06
2018-09-12T13:37:54.838Z,101605.34
2018-09-12T13:40:24.477Z,101622.75
2018-09-12T13:42:53.590Z,101640.97
2018-09-12T13:45:22.758Z,101615.61
2018-09-12T13:47:52.249Z,101622.23
2018-09-12T13:50:21.389Z,101620.88
2018-09-12T13:52:50.789Z,101613.78
2018-09-12T13:55:20.017Z,101606.61
2018-09-12T13:57:49.200Z,101608.97
2018-09-12T14:00:18.494Z,101597.67
2018-09-12T14:02:47.711Z,101597.41
2018-09-12T14:05:16.864Z,101605.80
2018-09-12T14:07:46.113Z,101591.05
2018-09-12T14:10:15.392Z,101579.47
2018-09-12T14:12:44.373Z,101591.92
2018-09-12T14:15:13.524Z,101588.30
2018-09-12T14:17:43.059Z,101589.73
2018-09-12T14:20:12.238Z,101592.36
2018-09-12T14:22:41.274Z,101592.91
2018-09-12T14:25:10.240Z,101596.02
2018-09-12T14:27:39.344Z,101565.46
2018-09-12T14:30:08.399Z,101586.98
2018-09-12T14:32:37.802Z,101589.11
2018-09-12T14:35:06.941Z,101589.49
2018-09-12T14:37:35.890Z,101584.19
2018-09-12T14:40:04.895Z,101579.41
2018-09-12T14:42:34.008Z,101584.99
2018-09-12T14:45:03.061Z,101573.39
2018-09-12T14:47:32.128Z,101573.21
2018-09-12T14:50:01.016Z,101568.59
2018-09-12T14:52:29.819Z,101575.97
2018-09-12T14:54:59.012Z,101573.36
2018-09-12T14:57:28.160Z,101572.56
2018-09-12T14:59:57.027Z,101569.13
2018-09-12T15:02:25.944Z,101577.17
2018-09-12T15:04:55.509Z,101575.23
2018-09-12T15:07:24.645Z,101576.75
2018-09-12T15:09:53.580Z,101578.41
2018-09-12T15:12:22.366Z,101574.98
2018-09-12T15:14:51.681Z,101580.08
2018-09-12T15:17:20.603Z,101570.64
2018-09-12T15:19:49.498Z,101571.94
2018-09-12T15:22:18.511Z,101566.50
2018-09-12T15:24:47.426Z,101560.48
2018-09-12T15:27:16.472Z,101555.80
2018-09-12T15:29:45.377Z,101546.44
2018-09-12T15:32:14.286Z,101555.64
2018-09-12T15:34:43.192Z,101551.61
2018-09-12T15:37:12.107Z,101546.28
2018-09-12T15:39:40.912Z,101546.77
2018-09-12T15:42:09.800Z,101552.37
2018-09-12T15:44:38.831Z,101550.20
2018-09-12T15:47:08.244Z,101555.43
2018-09-12T15:49:37.748Z,101550.18
2018-09-12T15:52:06.933Z,101548.64
2018-09-12T15:54:35.835Z,101546.94
2018-09-12T15:57:04.980Z,101544.55
2018-09-12T15:59:34.121Z,101548.53
2018-09-12T16:02:03.907Z,101550.35
2018-09-12T16:04:33.071Z,101556.89
2018-09-12T16:07:02.322Z,101551.98
2018-09-12T16:09:31.234Z,101546.37
2018-09-12T16:12:00.320Z,101547.01
2018-09-12T16:14:29.526Z,101549.32
2018-09-12T16:16:58.727Z,101555.59
2018-09-12T16:19:27.927Z,101545.58
2018-09-12T16:21:57.073Z,101547.38
2018-09-12T16:24:26.568Z,101547.78
2018-09-12T16:26:55.434Z,101548.64
2018-09-12T16:29:24.818Z,101551.95
2018-09-12T16:31:54.167Z,101555.40
2018-09-12T16:34:23.604Z,101552.75
2018-09-12T16:36:52.437Z,101556.95
2018-09-12T16:39:21.290Z,101558.14
2018-09-12T16:41:50.394Z,101553.05
2018-09-12T16:44:19.327Z,101554.53
2018-09-12T16:46:48.220Z,101553.28
2018-09-12T16:49:17.199Z,101552.80
2018-09-12T16:51:46.133Z,101547.25
2018-09-12T16:54:15.325Z,101550.30
2018-09-12T16:56:44.476Z,101553.21
2018-09-12T16:59:13.796Z,101557.26
2018-09-12T17:01:43.052Z,101558.08
2018-09-12T17:04:12.634Z,101559.91
2018-09-12T17:06:41.592Z,101551.55
2018-09-12T17:09:11.606Z,101555.11
2018-09-12T17:11:40.599Z,101551.91
2018-09-12T17:14:10.030Z,101553.73
2018-09-12T17:16:38.852Z,101558.95
2018-09-12T17:19:08.272Z,101554.75
2018-09-12T17:21:37.240Z,101556.85
2018-09-12T17:24:06.216Z,101555.66
2018-09-12T17:26:35.212Z,101557.92
2018-09-12T17:29:04.260Z,101557.25
2018-09-12T17:31:33.160Z,101544.58
2018-09-12T17:34:02.291Z,101568.18
2018-09-12T17:36:31.144Z,101570.45
2018-09-12T17:39:00.137Z,101568.28
2018-09-12T17:41:29.125Z,101568.62
2018-09-12T17:43:58.117Z,101571.39
2018-09-12T17:46:27.352Z,101574.16
2018-09-12T17:48:56.295Z,101579.92
2018-09-12T17:51:25.225Z,101579.75
2018-09-12T17:53:54.156Z,101577.20
2018-09-12T17:56:23.456Z,101579.52
2018-09-12T17:58:52.300Z,101575.75
2018-09-12T18:01:21.563Z,101578.64
2018-09-12T18:03:50.631Z,101585.64
2018-09-12T18:06:19.920Z,101590.38
2018-09-12T18:08:48.827Z,101586.27
2018-09-12T18:11:17.695Z,101590.09
2018-09-12T18:13:47.619Z,101586.20
2018-09-12T18:16:16.776Z,101594.20
2018-09-12T18:18:45.673Z,101590.38
2018-09-12T18:21:14.612Z,101591.13
2018-09-12T18:23:43.592Z,101579.13
2018-09-12T18:26:12.657Z,101588.48
2018-09-12T18:28:41.583Z,101584.38
2018-09-12T18:31:10.416Z,101580.97
2018-09-12T18:33:39.329Z,101581.36
2018-09-12T18:36:08.690Z,101577.27
2018-09-12T18:38:37.929Z,101591.03
2018-09-12T18:41:06.807Z,101589.84
2018-09-12T18:43:35.745Z,101590.55
2018-09-12T18:46:04.638Z,101599.22
2018-09-12T18:48:33.635Z,101600.02
2018-09-12T18:51:09.335Z,101596.50
2018-09-12T18:53:38.738Z,101593.92
2018-09-12T18:56:08.160Z,101592.20
2018-09-12T18:58:37.417Z,101589.52
2018-09-12T19:01:06.361Z,101587.73
2018-09-12T19:03:35.392Z,101592.92
2018-09-12T19:06:04.422Z,101588.12
2018-09-12T19:08:33.298Z,101585.47
2018-09-12T19:11:02.204Z,101592.81
2018-09-12T19:13:31.221Z,101583.06
2018-09-12T19:16:00.112Z,101588.09
2018-09-12T19:18:29.163Z,101577.98
2018-09-12T19:20:58.133Z,101583.59
2018-09-12T19:23:27.435Z,101581.78
2018-09-12T19:25:56.315Z,101582.82
2018-09-12T19:28:25.594Z,101591.27
2018-09-12T19:30:54.836Z,101584.43
2018-09-12T19:33:24.461Z,101582.73
2018-09-12T19:35:53.457Z,101582.33
2018-09-12T19:38:22.520Z,101579.73
2018-09-12T19:40:51.724Z,101577.20
2018-09-12T19:43:20.672Z,101572.20
2018-09-12T19:45:49.499Z,101565.82
2018-09-12T19:48:18.771Z,101563.23
2018-09-12T19:50:47.644Z,101562.33
2018-09-12T19:53:17.427Z,101565.09
2018-09-12T19:55:46.271Z,101563.23
2018-09-12T19:58:15.152Z,101567.13
2018-09-12T20:00:44.415Z,101564.31
2018-09-12T20:03:13.460Z,101562.64
2018-09-12T20:05:42.880Z,101558.72
2018-09-12T20:08:11.974Z,101562.75
2018-09-12T20:10:41.266Z,101549.44
2018-09-12T20:13:10.419Z,101557.84
2018-09-12T20:15:39.570Z,101569.09
2018-09-12T20:18:09.001Z,101571.52
2018-09-12T20:20:38.258Z,101569.22
2018-09-12T20:23:08.172Z,101569.77
2018-09-12T20:25:37.404Z,101573.39
2018-09-12T20:28:06.734Z,101567.36
2018-09-12T20:30:35.908Z,101568.16
2018-09-12T20:33:05.195Z,101562.78
2018-09-12T20:35:34.331Z,101562.95
2018-09-12T20:38:03.496Z,101567.19
2018-09-12T20:40:32.929Z,101565.45
2018-09-12T20:43:02.296Z,101562.27
2018-09-12T20:45:31.578Z,101562.84
2018-09-12T20:48:00.505Z,101556.83
2018-09-12T20:50:29.459Z,101560.51
2018-09-12T20:52:58.582Z,101555.42
2018-09-12T20:55:27.532Z,101551.30
2018-09-12T20:57:56.467Z,101553.91
2018-09-12T21:00:25.361Z,101554.52
2018-09-12T21:02:54.297Z,101553.83
2018-09-12T21:05:23.098Z,101548.51
2018-09-12T21:07:51.972Z,101550.88
2018-09-12T21:10:21.209Z,101540.48
2018-09-12T21:12:50.186Z,101545.73
2018-09-12T21:15:19.387Z,101545.05
2018-09-12T21:17:48.412Z,101549.23
2018-09-12T21:20:17.435Z,101545.95
2018-09-12T21:22:46.756Z,101540.69
2018-09-12T21:25:15.885Z,101538.19
2018-09-12T21:27:45.019Z,101536.52
2018-09-12T21:30:14.430Z,101527.72
2018-09-12T21:32:43.735Z,101527.93
2018-09-12T21:35:12.905Z,101522.79
2018-09-12T21:37:42.069Z,101534.77
2018-09-12T21:40:11.228Z,101529.31
2018-09-12T21:42:40.292Z,101530.80
2018-09-12T21:45:09.744Z,101522.11
2018-09-12T21:47:38.592Z,101511.77
2018-09-12T21:50:07.477Z,101510.13
2018-09-12T21:52:36.765Z,101515.09
2018-09-12T21:55:05.884Z,101513.91
2018-09-12T21:57:34.833Z,101512.27
2018-09-12T22:00:03.664Z,101510.12
2018-09-12T22:02:32.656Z,101511.34
2018-09-12T22:05:01.584Z,101510.67
2018-09-12T22:07:30.497Z,101511.51
2018-09-12T22:09:59.613Z,101502.00
2018-09-12T22:12:28.467Z,101509.50
2018-09-12T22:14:57.520Z,101508.47
2018-09-12T22:17:26.608Z,101503.51
2018-09-12T22:19:55.732Z,101495.84
2018-09-12T22:22:24.737Z,101499.86
2018-09-12T22:24:54.163Z,101489.19
2018-09-12T22:27:23.404Z,101492.66
2018-09-12T22:29:52.764Z,101487.95
2018-09-12T22:32:21.829Z,101485.48
2018-09-12T22:34:51.027Z,101489.01
2018-09-12T22:37:20.051Z,101485.94
2018-09-12T22:39:49.251Z,101482.72
2018-09-12T22:42:18.408Z,101488.44
2018-09-12T22:44:47.524Z,101485.04
2018-09-12T22:47:16.449Z,101488.87
2018-09-12T22:49:45.622Z,101488.16
2018-09-12T22:52:14.484Z,101490.80
2018-09-12T22:54:43.588Z,101489.27
2018-09-12T22:57:12.680Z,101478.70
2018-09-12T22:59:41.905Z,101480.48
2018-09-12T23:02:10.783Z,101480.70
2018-09-12T23:04:39.583Z,101477.87
2018-09-12T23:07:08.519Z,101473.13
2018-09-12T23:09:37.900Z,101473.80
2018-09-12T23:12:06.848Z,101467.05
2018-09-12T23:14:35.792Z,101471.06
2018-09-12T23:17:04.761Z,101472.70
2018-09-12T23:19:33.724Z,101466.19
2018-09-12T23:22:02.636Z,101464.17
2018-09-12T23:24:31.535Z,101465.70
2018-09-12T23:27:00.456Z,101460.20
2018-09-12T23:29:29.452Z,101465.41
2018-09-12T23:31:58.799Z,101467.95
2018-09-12T23:34:28.032Z,101464.84
2018-09-12T23:36:57.319Z,101472.66
2018-09-12T23:39:26.539Z,101463.81
2018-09-12T23:41:55.923Z,101469.69
2018-09-12T23:44:25.120Z,101465.92
2018-09-12T23:46:54.068Z,101456.63
2018-09-12T23:49:23.176Z,101452.36
2018-09-12T23:51:52.252Z,101443.66
2018-09-12T23:54:21.096Z,101441.17
2018-09-12T23:56:50.279Z,101441.47
2018-09-12T23:59:19.212Z,101443.95
